Time;durP1;ratioP1;P1;durP2;ratioP2;P2;SDS_P1;SDS_P2;PMS_P1;PMS_P2;Temp;Humidity;BMP_temperature;BMP_pressure;BME280_temperature;BME280_humidity;BME280_pressure;Samples;Min_cycle;Max_cycle;Signal;HPM_P1;HPM_P2
2022/09/11 00:00:32;;;;;;;;;;;;;;;18.44;56.43;100174.38;5381005;32;34413;-76
2022/09/11 00:03:35;;;;;;;;;;;;;;;19.57;53.58;100160.25;5368563;32;33309;-73
2022/09/11 00:06:37;;;;;;;;;;;;;;;18.65;55.43;100174.56;5383336;32;33751;-75
2022/09/11 00:09:39;;;;;;;;;;;;;;;18.98;54.17;100176.47;5353198;32;33214;-73
2022/09/11 00:12:41;;;;;;;;;;;;;;;18.77;55.02;100179.00;5380346;32;33352;-76
2022/09/11 00:15:43;;;;;;;;;;;;;;;18.39;56.24;100180.03;5370602;32;34811;-75
2022/09/11 00:18:45;;;;;;;;;;;;;;;19.57;52.35;100167.41;5357488;32;32937;-76
2022/09/11 00:21:50;;;;;;;;;;;;;;;19.14;53.38;100163.69;5390287;32;44905;-76
2022/09/11 00:24:53;;;;;;;;;;;;;;;18.64;55.12;100162.22;5365493;32;34202;-73
2022/09/11 00:27:56;;;;;;;;;;;;;;;17.87;57.44;100164.44;5388913;32;33603;-72
2022/09/11 00:30:58;;;;;;;;;;;;;;;18.29;56.72;100167.53;5362057;32;34315;-74
2022/09/11 00:34:00;;;;;;;;;;;;;;;18.75;54.62;100170.28;5376011;32;33451;-76
2022/09/11 00:37:02;;;;;;;;;;;;;;;18.76;54.68;100153.34;5376979;32;34091;-75
2022/09/11 00:40:04;;;;;;;;;;;;;;;18.61;55.11;100165.09;5364091;32;34777;-73
2022/09/11 00:43:08;;;;;;;;;;;;;;;18.38;55.39;100167.72;5392517;32;33510;-74
2022/09/11 00:46:10;;;;;;;;;;;;;;;18.44;55.92;100160.22;5367028;32;32930;-77
2022/09/11 00:49:31;;;;;;;;;;;;;;;19.18;53.58;100153.63;5373069;32;33208;-76
2022/09/11 00:52:34;;;;;;;;;;;;;;;19.40;52.83;100158.13;5375030;32;34215;-74
2022/09/11 00:55:36;;;;;;;;;;;;;;;18.76;54.36;100164.00;5363452;32;33755;-76
2022/09/11 00:58:38;;;;;;;;;;;;;;;18.30;55.93;100162.13;5385073;32;33536;-77
2022/09/11 01:01:40;;;;;;;;;;;;;;;18.23;55.63;100163.53;5376349;32;33032;-73
2022/09/11 01:04:42;;;;;;;;;;;;;;;18.26;56.40;100162.44;5384059;32;33874;-76
2022/09/11 01:07:45;;;;;;;;;;;;;;;18.65;55.21;100169.25;5371569;32;33087;-73
2022/09/11 01:10:56;;;;;;;;;;;;;;;18.38;55.84;100178.34;5378614;32;37512;-75
2022/09/11 01:14:21;;;;;;;;;;;;;;;17.87;57.54;100175.06;5373864;32;35001;-73
2022/09/11 01:17:34;;;;;;;;;;;;;;;18.76;54.40;100166.66;5353593;32;42786;-73
2022/09/11 01:20:42;;;;;;;;;;;;;;;18.08;56.38;100168.16;5396233;32;34408;-74
2022/09/11 01:23:54;;;;;;;;;;;;;;;18.65;54.69;100161.25;5357267;32;33709;-75
2022/09/11 01:27:00;;;;;;;;;;;;;;;19.26;52.82;100155.72;5386168;32;44539;-73
2022/09/11 01:30:04;;;;;;;;;;;;;;;18.04;56.79;100163.19;5361084;32;33948;-77
2022/09/11 01:33:16;;;;;;;;;;;;;;;17.89;57.30;100156.34;5371522;32;35162;-73
2022/09/11 01:36:17;;;;;;;;;;;;;;;17.87;57.17;100149.31;5380348;32;44458;-73
2022/09/11 01:39:20;;;;;;;;;;;;;;;17.85;57.53;100140.62;5368991;32;34213;-76
2022/09/11 01:42:22;;;;;;;;;;;;;;;17.26;59.71;100143.09;5386407;32;33910;-72
2022/09/11 01:45:24;;;;;;;;;;;;;;;17.98;57.61;100145.87;5365338;32;33760;-73
2022/09/11 01:48:31;;;;;;;;;;;;;;;18.38;56.10;100141.09;5359899;32;34324;-73
2022/09/11 01:51:33;;;;;;;;;;;;;;;18.28;56.10;100139.22;5392705;32;33886;-74
2022/09/11 01:54:41;;;;;;;;;;;;;;;17.32;59.65;100142.66;5338497;32;32201;-71
2022/09/11 01:58:02;;;;;;;;;;;;;;;17.64;58.82;100143.94;5364670;32;34423;-75
2022/09/11 02:01:09;;;;;;;;;;;;;;;17.48;58.87;100138.91;5344491;32;33762;-72
2022/09/11 02:04:13;;;;;;;;;;;;;;;17.76;57.94;100135.97;5372102;32;32730;-75
2022/09/11 02:07:16;;;;;;;;;;;;;;;18.39;56.12;100139.28;5374711;32;33071;-75
2022/09/11 02:10:19;;;;;;;;;;;;;;;17.40;58.65;100133.28;5348041;32;43581;-75
2022/09/11 02:13:22;;;;;;;;;;;;;;;16.96;60.83;100139.91;5376763;32;35635;-72
2022/09/11 02:16:47;;;;;;;;;;;;;;;17.53;58.89;100128.78;5363675;32;34577;-72
2022/09/11 02:19:49;;;;;;;;;;;;;;;17.57;59.09;100120.47;5378316;32;44414;-75
2022/09/11 02:22:52;;;;;;;;;;;;;;;16.91;61.22;100131.41;5361317;32;33826;-76
2022/09/11 02:25:53;;;;;;;;;;;;;;;17.65;58.95;100129.72;5377649;32;34220;-72
2022/09/11 02:28:55;;;;;;;;;;;;;;;17.08;60.49;100133.75;5389225;32;33753;-73
2022/09/11 02:31:59;;;;;;;;;;;;;;;17.12;60.73;100126.41;5374375;32;35384;-73
2022/09/11 02:35:01;;;;;;;;;;;;;;;17.30;59.81;100120.66;5370143;32;33422;-72
2022/09/11 02:38:03;;;;;;;;;;;;;;;16.77;61.74;100130.56;5374391;32;33428;-74
2022/09/11 02:41:13;;;;;;;;;;;;;;;16.89;61.76;100128.03;5376246;32;34084;-76
2022/09/11 02:44:18;;;;;;;;;;;;;;;17.11;60.85;100106.13;5382234;32;33264;-73
2022/09/11 02:47:26;;;;;;;;;;;;;;;17.20;60.27;100126.72;5370066;32;45142;-73
2022/09/11 02:50:40;;;;;;;;;;;;;;;17.70;58.93;100115.09;5381740;32;34530;-75
2022/09/11 02:53:47;;;;;;;;;;;;;;;17.70;58.67;100125.75;5371790;32;33550;-75
2022/09/11 02:56:55;;;;;;;;;;;;;;;16.87;61.92;100132.56;5370392;32;45622;-73
2022/09/11 03:00:01;;;;;;;;;;;;;;;17.70;59.04;100124.91;5357748;32;35558;-75
2022/09/11 03:03:03;;;;;;;;;;;;;;;17.59;59.10;100133.66;5373722;32;32897;-76
2022/09/11 03:06:05;;;;;;;;;;;;;;;17.12;61.44;100132.56;5385045;32;33763;-76
2022/09/11 03:09:08;;;;;;;;;;;;;;;17.07;61.13;100142.69;5355646;32;33135;-76
2022/09/11 03:12:10;;;;;;;;;;;;;;;18.19;57.37;100135.47;5382591;32;32731;-76
2022/09/11 03:15:12;;;;;;;;;;;;;;;17.52;59.30;100146.53;5363890;32;33127;-73
2022/09/11 03:18:14;;;;;;;;;;;;;;;17.52;59.91;100141.22;5381782;32;33729;-75
2022/09/11 03:21:16;;;;;;;;;;;;;;;17.17;60.63;100146.38;5376834;32;33567;-74
2022/09/11 03:24:18;;;;;;;;;;;;;;;17.13;61.08;100134.28;5368659;32;44410;-76
2022/09/11 03:27:20;;;;;;;;;;;;;;;17.26;61.01;100148.41;5389430;32;33608;-73
2022/09/11 03:30:22;;;;;;;;;;;;;;;16.59;63.02;100144.19;5377800;32;34349;-75
2022/09/11 03:33:24;;;;;;;;;;;;;;;17.57;59.78;100140.88;5378831;32;34159;-77
2022/09/11 03:36:26;;;;;;;;;;;;;;;17.86;57.85;100134.34;5376690;32;33718;-75
2022/09/11 03:39:28;;;;;;;;;;;;;;;17.81;58.29;100127.66;5377505;32;33896;-74
2022/09/11 03:42:30;;;;;;;;;;;;;;;17.10;60.87;100129.19;5381244;32;33583;-77
2022/09/11 03:45:32;;;;;;;;;;;;;;;17.11;60.99;100125.56;5361847;32;33999;-76
2022/09/11 03:48:34;;;;;;;;;;;;;;;17.17;60.68;100142.88;5392836;32;33717;-76
2022/09/11 03:51:36;;;;;;;;;;;;;;;17.31;59.94;100130.31;5376861;32;33446;-74
2022/09/11 03:54:38;;;;;;;;;;;;;;;17.33;59.92;100128.41;5376680;32;32971;-75
2022/09/11 03:57:40;;;;;;;;;;;;;;;18.07;57.57;100123.91;5358478;32;33703;-76
2022/09/11 04:00:46;;;;;;;;;;;;;;;18.04;57.58;100128.63;5369106;32;33538;-77
2022/09/11 04:03:48;;;;;;;;;;;;;;;17.21;59.66;100137.25;5371480;32;44991;-77
2022/09/11 04:06:50;;;;;;;;;;;;;;;17.32;59.43;100132.03;5351932;32;31745;-76
2022/09/11 04:09:52;;;;;;;;;;;;;;;17.46;58.82;100144.31;5384376;32;34207;-72
2022/09/11 04:12:54;;;;;;;;;;;;;;;17.60;58.34;100141.53;5371677;32;34392;-76
2022/09/11 04:16:00;;;;;;;;;;;;;;;17.63;58.42;100144.91;5380271;32;33896;-77
2022/09/11 04:19:02;;;;;;;;;;;;;;;18.30;56.46;100140.00;5357940;32;33394;-72
2022/09/11 04:22:04;;;;;;;;;;;;;;;17.56;58.34;100129.41;5380926;32;34191;-76
2022/09/11 04:25:06;;;;;;;;;;;;;;;17.60;58.78;100138.00;5377888;32;34057;-76
2022/09/11 04:28:08;;;;;;;;;;;;;;;17.74;58.52;100150.34;5372598;32;33370;-73
2022/09/11 04:31:10;;;;;;;;;;;;;;;17.68;58.75;100150.75;5381481;32;32881;-73
2022/09/11 04:34:11;;;;;;;;;;;;;;;18.17;56.92;100141.87;5368378;32;32972;-74
2022/09/11 04:37:15;;;;;;;;;;;;;;;17.73;58.79;100145.97;5388691;32;33659;-75
2022/09/11 04:40:17;;;;;;;;;;;;;;;17.57;58.90;100147.03;5362040;32;34212;-75
2022/09/11 04:43:19;;;;;;;;;;;;;;;18.16;57.49;100132.16;5375218;32;44810;-77
2022/09/11 04:46:22;;;;;;;;;;;;;;;17.46;59.36;100133.69;5391696;32;33250;-76
2022/09/11 04:49:24;;;;;;;;;;;;;;;18.41;56.73;100138.19;5352790;32;33603;-76
2022/09/11 04:52:26;;;;;;;;;;;;;;;17.68;58.13;100135.63;5389086;32;33086;-77
2022/09/11 04:55:28;;;;;;;;;;;;;;;18.02;58.02;100130.53;5345249;32;33517;-76
2022/09/11 04:58:30;;;;;;;;;;;;;;;18.22;56.99;100118.41;5383043;32;33116;-76
2022/09/11 05:01:32;;;;;;;;;;;;;;;17.75;58.12;100125.44;5366235;32;33784;-74
2022/09/11 05:04:34;;;;;;;;;;;;;;;17.75;58.39;100128.94;5366352;32;34337;-75
2022/09/11 05:07:37;;;;;;;;;;;;;;;18.15;57.37;100128.66;5390178;32;33526;-75
2022/09/11 05:10:41;;;;;;;;;;;;;;;18.74;56.02;100136.66;5363951;32;33614;-74
2022/09/11 05:13:42;;;;;;;;;;;;;;;17.87;57.94;100130.72;5389245;32;32960;-74
2022/09/11 05:16:45;;;;;;;;;;;;;;;18.30;57.40;100130.19;5376076;32;33674;-76
2022/09/11 05:19:48;;;;;;;;;;;;;;;18.51;56.42;100137.50;5380966;32;33234;-74
2022/09/11 05:22:50;;;;;;;;;;;;;;;18.94;55.17;100132.44;5376984;32;44146;-75
2022/09/11 05:25:55;;;;;;;;;;;;;;;19.43;53.87;100137.38;5343736;32;33600;-73
2022/09/11 05:29:01;;;;;;;;;;;;;;;19.68;52.85;100135.47;5387851;32;34377;-73
2022/09/11 05:32:04;;;;;;;;;;;;;;;19.75;52.83;100141.97;5374667;32;33079;-73
2022/09/11 05:35:06;;;;;;;;;;;;;;;18.97;55.10;100147.31;5380404;32;33134;-73
2022/09/11 05:38:09;;;;;;;;;;;;;;;19.09;55.57;100151.69;5372588;32;33713;-74
2022/09/11 05:41:12;;;;;;;;;;;;;;;19.71;53.50;100156.56;5387994;32;33704;-76
2022/09/11 05:44:14;;;;;;;;;;;;;;;19.26;54.92;100159.22;5358169;32;33706;-76
2022/09/11 05:47:16;;;;;;;;;;;;;;;18.99;55.64;100158.69;5363046;32;33624;-76
2022/09/11 05:50:20;;;;;;;;;;;;;;;18.44;57.72;100158.41;5376581;32;44520;-73
2022/09/11 05:53:22;;;;;;;;;;;;;;;19.87;53.59;100151.66;5368989;32;33926;-76
2022/09/11 05:56:24;;;;;;;;;;;;;;;20.28;52.45;100160.72;5358306;32;33711;-74
2022/09/11 05:59:26;;;;;;;;;;;;;;;20.45;51.81;100162.87;5364101;32;33991;-74
2022/09/11 06:02:29;;;;;;;;;;;;;;;21.16;49.73;100159.53;5383462;32;34039;-75
2022/09/11 06:05:31;;;;;;;;;;;;;;;21.25;49.33;100156.03;5382902;32;34028;-77
2022/09/11 06:08:35;;;;;;;;;;;;;;;22.45;45.77;100155.09;5371052;32;33905;-73
2022/09/11 06:11:37;;;;;;;;;;;;;;;23.16;43.47;100147.50;5370423;32;33668;-74
2022/09/11 06:14:39;;;;;;;;;;;;;;;23.41;42.70;100145.16;5365420;32;33584;-78
2022/09/11 06:17:41;;;;;;;;;;;;;;;22.70;44.18;100157.19;5387161;32;33150;-73
2022/09/11 06:20:42;;;;;;;;;;;;;;;24.26;41.24;100149.31;5362911;32;33698;-73
2022/09/11 06:23:48;;;;;;;;;;;;;;;24.50;40.77;100152.25;5379240;32;32867;-77
2022/09/11 06:26:50;;;;;;;;;;;;;;;25.44;38.66;100148.84;5378706;32;45018;-73
2022/09/11 06:29:52;;;;;;;;;;;;;;;24.32;40.70;100156.75;5364844;32;33618;-73
2022/09/11 06:32:56;;;;;;;;;;;;;;;22.71;44.45;100158.03;5389287;32;33472;-76
2022/09/11 06:35:58;;;;;;;;;;;;;;;23.35;43.07;100154.63;5360603;32;33657;-77
2022/09/11 06:39:01;;;;;;;;;;;;;;;24.25;40.92;100156.53;5371771;32;33921;-73
2022/09/11 06:42:03;;;;;;;;;;;;;;;24.37;40.34;100165.22;5374225;32;34320;-76
2022/09/11 06:45:06;;;;;;;;;;;;;;;24.80;39.10;100155.50;5368287;32;33034;-77
2022/09/11 06:48:07;;;;;;;;;;;;;;;24.01;41.66;100153.59;5383899;32;34674;-75
2022/09/11 06:51:11;;;;;;;;;;;;;;;24.74;39.68;100151.59;5370169;32;32910;-74
2022/09/11 06:54:13;;;;;;;;;;;;;;;26.51;36.31;100133.81;5369027;32;33492;-74
2022/09/11 06:57:15;;;;;;;;;;;;;;;25.85;37.20;100136.41;5331699;32;33990;-73
2022/09/11 07:00:16;;;;;;;;;;;;;;;26.44;36.01;100145.25;5390763;32;33341;-77
2022/09/11 07:03:18;;;;;;;;;;;;;;;24.12;40.44;100156.06;5371867;32;46342;-75
2022/09/11 07:06:22;;;;;;;;;;;;;;;24.69;40.20;100153.91;5375447;32;33855;-73
2022/09/11 07:09:23;;;;;;;;;;;;;;;25.00;39.42;100150.78;5382239;32;34189;-72
2022/09/11 07:12:25;;;;;;;;;;;;;;;26.03;37.32;100138.13;5369256;32;33702;-75
2022/09/11 07:15:27;;;;;;;;;;;;;;;25.96;37.37;100145.19;5380827;32;34673;-73
2022/09/11 07:18:36;;;;;;;;;;;;;;;24.85;39.89;100154.00;5371585;32;33910;-76
2022/09/11 07:21:37;;;;;;;;;;;;;;;26.09;37.73;100138.31;5391322;32;33330;-75
2022/09/11 07:24:39;;;;;;;;;;;;;;;26.56;36.52;100142.25;5367688;32;33461;-74
2022/09/11 07:27:42;;;;;;;;;;;;;;;26.39;36.25;100135.97;5372453;32;33576;-79
2022/09/11 07:30:44;;;;;;;;;;;;;;;25.23;38.80;100149.25;5382478;32;33227;-73
2022/09/11 07:33:47;;;;;;;;;;;;;;;25.27;38.46;100145.25;5370681;32;33378;-76
2022/09/11 07:36:50;;;;;;;;;;;;;;;24.87;39.59;100145.81;5397058;32;45007;-76
2022/09/11 07:39:52;;;;;;;;;;;;;;;25.91;36.95;100133.06;5365035;32;34086;-73
2022/09/11 07:42:54;;;;;;;;;;;;;;;23.92;41.49;100146.47;5389397;32;33552;-76
2022/09/11 07:45:57;;;;;;;;;;;;;;;22.70;45.08;100145.63;5365760;32;33808;-72
2022/09/11 07:49:00;;;;;;;;;;;;;;;21.14;48.87;100153.50;5370845;32;34891;-75
2022/09/11 07:52:03;;;;;;;;;;;;;;;20.81;49.62;100142.91;5377886;32;32780;-76
2022/09/11 07:55:05;;;;;;;;;;;;;;;22.97;44.86;100132.34;5336047;32;34974;-76
2022/09/11 07:58:07;;;;;;;;;;;;;;;23.09;44.67;100141.06;5378482;32;32990;-77
2022/09/11 08:01:10;;;;;;;;;;;;;;;24.26;41.92;100141.25;5375271;32;33569;-75
2022/09/11 08:04:13;;;;;;;;;;;;;;;25.39;39.78;100137.72;5370303;32;33713;-73
2022/09/11 08:07:15;;;;;;;;;;;;;;;24.85;40.25;100137.88;5370660;32;33651;-73
2022/09/11 08:10:17;;;;;;;;;;;;;;;25.90;38.57;100133.22;5361248;32;43481;-73
2022/09/11 08:13:28;;;;;;;;;;;;;;;25.65;38.61;100140.34;5376555;32;34530;-77
2022/09/11 08:16:30;;;;;;;;;;;;;;;26.19;37.64;100135.44;5366810;32;34853;-76
2022/09/11 08:19:32;;;;;;;;;;;;;;;26.38;37.56;100143.22;5382022;32;33909;-78
2022/09/11 08:22:34;;;;;;;;;;;;;;;24.74;40.52;100145.41;5370445;32;34201;-77
2022/09/11 08:25:36;;;;;;;;;;;;;;;26.12;37.40;100143.34;5388779;32;34030;-74
2022/09/11 08:28:39;;;;;;;;;;;;;;;25.37;39.30;100137.03;5381558;32;33152;-74
2022/09/11 08:31:41;;;;;;;;;;;;;;;26.21;37.13;100144.19;5366885;32;33639;-76
2022/09/11 08:34:42;;;;;;;;;;;;;;;24.83;39.81;100153.34;5383193;32;33345;-74
2022/09/11 08:37:44;;;;;;;;;;;;;;;24.13;41.30;100141.63;5371442;32;33406;-73
2022/09/11 08:40:47;;;;;;;;;;;;;;;25.01;40.17;100134.47;5380531;32;33490;-76
2022/09/11 08:43:50;;;;;;;;;;;;;;;26.59;36.77;100128.41;5357352;32;44809;-75
2022/09/11 08:47:01;;;;;;;;;;;;;;;27.11;35.58;100117.22;5381966;32;33913;-74
2022/09/11 08:50:03;;;;;;;;;;;;;;;27.33;35.18;100127.28;5361201;32;33948;-73
2022/09/11 08:53:05;;;;;;;;;;;;;;;26.75;35.64;100128.41;5368666;32;33868;-77
2022/09/11 08:56:17;;;;;;;;;;;;;;;25.62;38.37;100129.91;5361770;32;34196;-76
2022/09/11 08:59:29;;;;;;;;;;;;;;;25.35;38.79;100133.66;5352512;32;44231;-76
2022/09/11 09:02:34;;;;;;;;;;;;;;;25.64;37.62;100134.12;5391796;32;33034;-76
2022/09/11 09:05:55;;;;;;;;;;;;;;;24.03;41.05;100146.25;5381610;32;33912;-77
2022/09/11 09:09:03;;;;;;;;;;;;;;;23.66;41.78;100144.50;5361887;32;47323;-76
2022/09/11 09:12:14;;;;;;;;;;;;;;;24.52;39.89;100144.03;5387067;32;33887;-72
2022/09/11 09:15:33;;;;;;;;;;;;;;;22.80;43.85;100150.97;5324079;32;841313;-72
2022/09/11 09:18:36;;;;;;;;;;;;;;;23.51;42.50;100154.88;5382992;32;34096;-72
2022/09/11 09:21:40;;;;;;;;;;;;;;;23.08;43.68;100147.41;5360418;32;33982;-77
2022/09/11 09:24:50;;;;;;;;;;;;;;;23.14;43.62;100160.22;5350810;32;32942;-74
2022/09/11 09:27:53;;;;;;;;;;;;;;;23.77;42.85;100154.19;5388860;32;45127;-75
2022/09/11 09:31:00;;;;;;;;;;;;;;;24.93;40.43;100155.09;5345546;32;33682;-73
2022/09/11 09:34:07;;;;;;;;;;;;;;;24.79;40.58;100157.34;5371679;32;31989;-73
2022/09/11 09:37:16;;;;;;;;;;;;;;;26.22;37.18;100154.00;5375869;32;33451;-76
2022/09/11 09:40:18;;;;;;;;;;;;;;;24.90;39.08;100158.09;5347325;32;44971;-77
2022/09/11 09:43:30;;;;;;;;;;;;;;;23.82;42.01;100154.56;5390993;32;33759;-73
2022/09/11 09:46:42;;;;;;;;;;;;;;;24.10;41.14;100163.44;5364873;32;34173;-76
2022/09/11 09:49:51;;;;;;;;;;;;;;;24.91;39.48;100157.09;5367417;32;44618;-74
2022/09/11 09:52:55;;;;;;;;;;;;;;;24.85;39.33;100150.47;5358027;32;33892;-74
2022/09/11 09:55:57;;;;;;;;;;;;;;;25.76;37.69;100145.47;5335417;32;33168;-76
2022/09/11 09:59:01;;;;;;;;;;;;;;;28.16;33.32;100133.97;5367256;32;34067;-77
2022/09/11 10:02:03;;;;;;;;;;;;;;;28.27;32.68;100128.97;5369223;32;33255;-73
2022/09/11 10:05:12;;;;;;;;;;;;;;;29.46;30.83;100124.59;5384036;32;33582;-74
2022/09/11 10:08:24;;;;;;;;;;;;;;;27.22;33.85;100127.66;5370736;32;31493;-73
2022/09/11 10:11:27;;;;;;;;;;;;;;;28.23;32.72;100133.03;5380003;32;45923;-73
2022/09/11 10:14:31;;;;;;;;;;;;;;;28.76;30.78;100116.91;5355523;32;33831;-74
2022/09/11 10:17:52;;;;;;;;;;;;;;;28.11;32.64;100106.62;5374918;32;46790;-76
2022/09/11 10:21:12;;;;;;;;;;;;;;;28.30;32.40;100116.94;5366677;32;34066;-76
2022/09/11 10:24:25;;;;;;;;;;;;;;;30.29;29.10;100100.78;5367917;32;33476;-77
2022/09/11 10:27:27;;;;;;;;;;;;;;;28.66;30.36;100102.78;5382411;32;44656;-76
2022/09/11 10:30:30;;;;;;;;;;;;;;;26.73;34.22;100106.19;5372176;32;34012;-77
2022/09/11 10:33:33;;;;;;;;;;;;;;;25.87;35.92;100096.69;5370002;32;33572;-76
2022/09/11 10:36:35;;;;;;;;;;;;;;;25.45;36.97;100095.91;5382110;32;34118;-76
2022/09/11 10:39:36;;;;;;;;;;;;;;;25.07;38.33;100103.47;5366647;32;33886;-77
2022/09/11 10:42:40;;;;;;;;;;;;;;;25.19;37.89;100107.56;5386677;32;33301;-74
2022/09/11 10:45:42;;;;;;;;;;;;;;;24.80;38.70;100105.28;5358829;32;33011;-76
2022/09/11 10:48:54;;;;;;;;;;;;;;;24.77;38.98;100105.59;5365717;32;33987;-73
2022/09/11 10:52:23;;;;;;;;;;;;;;;24.22;41.18;100111.19;5378182;32;45418;-72
2022/09/11 10:55:25;;;;;;;;;;;;;;;23.36;43.69;100120.62;5348587;32;45324;-73
2022/09/11 10:58:29;;;;;;;;;;;;;;;23.28;44.18;100121.38;5367571;32;34118;-74
2022/09/11 11:01:31;;;;;;;;;;;;;;;23.87;42.64;100125.44;5365192;32;33777;-73
2022/09/11 11:04:33;;;;;;;;;;;;;;;22.97;43.86;100126.13;5381942;32;33676;-76
2022/09/11 11:07:39;;;;;;;;;;;;;;;23.17;43.42;100116.19;5383608;32;33489;-77
2022/09/11 11:11:04;;;;;;;;;;;;;;;24.10;41.25;100125.00;5364294;32;33625;-74
2022/09/11 11:14:15;;;;;;;;;;;;;;;23.49;42.40;100103.19;5358455;32;34294;-76
2022/09/11 11:17:35;;;;;;;;;;;;;;;23.81;42.41;100107.25;5372024;32;33834;-78
2022/09/11 11:20:49;;;;;;;;;;;;;;;23.58;41.74;100098.78;5383471;32;33422;-77
2022/09/11 11:24:11;;;;;;;;;;;;;;;23.04;42.99;100105.78;5376543;32;45136;-74
2022/09/11 11:27:27;;;;;;;;;;;;;;;24.59;40.00;100102.09;5371380;32;33256;-76
2022/09/11 11:30:30;;;;;;;;;;;;;;;24.57;40.06;100090.69;5380915;32;33415;-73
2022/09/11 11:33:44;;;;;;;;;;;;;;;24.38;40.34;100099.78;5372835;32;33892;-74
2022/09/11 11:36:46;;;;;;;;;;;;;;;23.41;42.13;100086.16;5368132;32;33611;-76
2022/09/11 11:39:51;;;;;;;;;;;;;;;23.68;41.33;100096.06;5382825;32;44776;-74
2022/09/11 11:42:59;;;;;;;;;;;;;;;23.39;41.67;100088.16;5373082;32;33837;-78
2022/09/11 11:46:16;;;;;;;;;;;;;;;24.29;39.91;100095.31;5381475;32;35264;-74
2022/09/11 11:49:32;;;;;;;;;;;;;;;24.50;39.55;100092.31;5371299;32;43956;-76
2022/09/11 11:52:37;;;;;;;;;;;;;;;22.71;42.35;100094.59;5364367;32;33392;-79
2022/09/11 11:55:42;;;;;;;;;;;;;;;23.06;41.63;100095.78;5361680;32;33942;-76
2022/09/11 11:58:52;;;;;;;;;;;;;;;24.01;39.81;100094.53;5355180;32;33847;-77
2022/09/11 12:02:14;;;;;;;;;;;;;;;23.84;40.36;100087.34;5390096;32;45557;-77
2022/09/11 12:05:18;;;;;;;;;;;;;;;23.74;40.29;100082.88;5370015;32;33665;-75
2022/09/11 12:08:19;;;;;;;;;;;;;;;23.58;40.78;100085.38;5379044;32;43137;-77
2022/09/11 12:11:25;;;;;;;;;;;;;;;23.34;41.99;100091.28;5377250;32;34126;-76
2022/09/11 12:14:27;;;;;;;;;;;;;;;22.36;43.73;100078.31;5355341;32;35442;-77
2022/09/11 12:17:31;;;;;;;;;;;;;;;22.60;44.14;100094.75;5380218;32;34202;-73
2022/09/11 12:20:36;;;;;;;;;;;;;;;23.25;42.31;100081.47;5366002;32;34891;-77
2022/09/11 12:23:45;;;;;;;;;;;;;;;22.43;44.57;100084.78;5387012;32;33061;-73
2022/09/11 12:27:07;;;;;;;;;;;;;;;23.87;41.01;100081.66;5369209;32;44732;-77
2022/09/11 12:30:15;;;;;;;;;;;;;;;22.57;43.21;100088.84;5363745;32;35063;-74
2022/09/11 12:33:35;;;;;;;;;;;;;;;22.32;43.36;100099.16;5391682;32;37032;-74
2022/09/11 12:36:56;;;;;;;;;;;;;;;21.66;44.25;100096.28;5376484;32;34063;-76
2022/09/11 12:40:05;;;;;;;;;;;;;;;22.25;42.56;100098.03;5377730;32;33037;-72
2022/09/11 12:43:26;;;;;;;;;;;;;;;22.35;42.26;100098.91;5384348;32;33833;-76
2022/09/11 12:46:28;;;;;;;;;;;;;;;23.21;41.62;100088.94;5363164;32;33338;-74
2022/09/11 12:49:33;;;;;;;;;;;;;;;23.19;42.29;100092.78;5385042;32;33981;-74
2022/09/11 12:52:41;;;;;;;;;;;;;;;23.04;43.05;100084.34;5359663;32;34087;-74
2022/09/11 12:55:51;;;;;;;;;;;;;;;21.96;45.89;100087.31;5358730;32;33011;-76
2022/09/11 12:58:54;;;;;;;;;;;;;;;22.32;45.68;100082.25;5375121;32;48103;-73
2022/09/11 13:01:56;;;;;;;;;;;;;;;22.32;46.07;100087.63;5371713;32;34491;-74
2022/09/11 13:04:58;;;;;;;;;;;;;;;23.06;44.69;100077.03;5385531;32;34239;-76
2022/09/11 13:08:04;;;;;;;;;;;;;;;22.31;46.52;100080.56;5376432;32;33224;-73
2022/09/11 13:11:25;;;;;;;;;;;;;;;23.87;43.53;100081.66;5378111;32;32778;-73
2022/09/11 13:14:26;;;;;;;;;;;;;;;23.60;43.80;100078.00;5368110;32;45171;-73
2022/09/11 13:17:29;;;;;;;;;;;;;;;23.15;45.07;100067.25;5370558;32;34321;-73
2022/09/11 13:20:31;;;;;;;;;;;;;;;23.15;45.48;100068.09;5394415;32;34165;-77
2022/09/11 13:23:33;;;;;;;;;;;;;;;24.19;43.13;100063.16;5370422;32;34088;-74
2022/09/11 13:26:35;;;;;;;;;;;;;;;24.12;42.19;100059.41;5394482;32;33542;-77
2022/09/11 13:29:38;;;;;;;;;;;;;;;23.93;40.84;100065.78;5366558;32;33447;-76
2022/09/11 13:32:41;;;;;;;;;;;;;;;23.61;41.52;100060.94;5388020;32;33517;-73
2022/09/11 13:35:43;;;;;;;;;;;;;;;23.36;41.54;100056.25;5378184;32;33536;-73
2022/09/11 13:38:47;;;;;;;;;;;;;;;23.76;39.11;100051.38;5351209;32;34798;-75
2022/09/11 13:41:49;;;;;;;;;;;;;;;23.07;40.56;100040.34;5395103;32;44545;-76
2022/09/11 13:44:52;;;;;;;;;;;;;;;23.09;40.53;100044.56;5364267;32;34215;-73
2022/09/11 13:47:54;;;;;;;;;;;;;;;22.95;40.77;100035.19;5392275;32;33673;-73
2022/09/11 13:50:56;;;;;;;;;;;;;;;22.73;41.33;100037.34;5358957;32;34381;-73
2022/09/11 13:54:04;;;;;;;;;;;;;;;22.67;41.01;100038.78;5370938;32;33272;-72
2022/09/11 13:57:11;;;;;;;;;;;;;;;23.85;40.17;100030.00;5335665;32;33088;-73
2022/09/11 14:00:33;;;;;;;;;;;;;;;23.08;40.70;100037.50;5363934;32;32999;-73
2022/09/11 14:03:35;;;;;;;;;;;;;;;23.12;40.63;100041.59;5375195;32;36066;-76
2022/09/11 14:06:37;;;;;;;;;;;;;;;23.48;40.34;100034.44;5372018;32;32728;-73
2022/09/11 14:09:39;;;;;;;;;;;;;;;23.04;40.83;100030.75;5369362;32;32917;-73
2022/09/11 14:12:46;;;;;;;;;;;;;;;23.06;40.87;100031.47;5358177;32;34489;-73
2022/09/11 14:15:50;;;;;;;;;;;;;;;23.68;39.49;100024.44;5346542;32;43608;-74
2022/09/11 14:18:59;;;;;;;;;;;;;;;22.96;40.58;100022.63;5394176;32;34170;-76
2022/09/11 14:22:00;;;;;;;;;;;;;;;23.22;40.14;100023.59;5379618;32;33594;-77
2022/09/11 14:25:08;;;;;;;;;;;;;;;23.36;39.92;100021.41;5387018;32;34182;-73
2022/09/11 14:28:34;;;;;;;;;;;;;;;23.07;41.06;100018.91;5379968;32;33685;-72
2022/09/11 14:31:37;;;;;;;;;;;;;;;23.45;40.44;100023.19;5370177;32;33518;-77
2022/09/11 14:34:39;;;;;;;;;;;;;;;23.40;41.24;100020.97;5373210;32;33804;-76
2022/09/11 14:37:44;;;;;;;;;;;;;;;23.44;40.85;100013.44;5382883;32;33498;-77
2022/09/11 14:40:47;;;;;;;;;;;;;;;23.30;41.11;100008.59;5383748;32;32946;-77
2022/09/11 14:43:49;;;;;;;;;;;;;;;23.50;41.08;100008.31;5374020;32;45459;-74
2022/09/11 14:46:52;;;;;;;;;;;;;;;23.50;40.98;99999.41;5389663;32;34187;-77
2022/09/11 14:49:55;;;;;;;;;;;;;;;23.11;42.29;100004.19;5365783;32;33008;-74
2022/09/11 14:52:56;;;;;;;;;;;;;;;23.06;43.08;100022.59;5379375;32;34349;-75
2022/09/11 14:55:58;;;;;;;;;;;;;;;22.44;46.38;100033.75;5361791;32;33743;-75
2022/09/11 14:59:00;;;;;;;;;;;;;;;21.74;48.87;100034.91;5359291;32;34015;-77
2022/09/11 15:02:03;;;;;;;;;;;;;;;22.14;48.75;100036.63;5395924;32;33726;-76
2022/09/11 15:05:05;;;;;;;;;;;;;;;21.36;51.30;100035.72;5371344;32;33590;-73
2022/09/11 15:08:08;;;;;;;;;;;;;;;21.54;51.43;100039.41;5394141;32;33740;-74
2022/09/11 15:11:10;;;;;;;;;;;;;;;22.88;47.93;100030.56;5367161;32;33484;-74
2022/09/11 15:14:13;;;;;;;;;;;;;;;22.58;48.84;100034.28;5373138;32;32771;-77
2022/09/11 15:17:35;;;;;;;;;;;;;;;22.81;47.85;100032.94;5396924;32;33998;-78
2022/09/11 15:20:37;;;;;;;;;;;;;;;22.53;48.61;100026.69;5382775;32;32904;-73
2022/09/11 15:23:39;;;;;;;;;;;;;;;22.93;47.37;100021.09;5391736;32;34715;-78
2022/09/11 15:26:41;;;;;;;;;;;;;;;22.11;47.91;100021.72;5371447;32;32897;-74
2022/09/11 15:29:44;;;;;;;;;;;;;;;22.59;46.33;100031.47;5361514;32;32537;-78
2022/09/11 15:32:46;;;;;;;;;;;;;;;23.63;43.63;100032.09;5389038;32;33693;-75
2022/09/11 15:35:48;;;;;;;;;;;;;;;23.89;43.32;100025.97;5360832;32;45085;-74
2022/09/11 15:38:52;;;;;;;;;;;;;;;22.89;45.41;100035.75;5393949;32;33060;-74
2022/09/11 15:41:54;;;;;;;;;;;;;;;22.77;45.60;100031.53;5378210;32;34543;-76
2022/09/11 15:44:56;;;;;;;;;;;;;;;22.82;45.39;100031.13;5367767;32;33198;-74
2022/09/11 15:47:58;;;;;;;;;;;;;;;22.90;45.49;100025.88;5373854;32;34310;-73